Time;durP1;ratioP1;P1;durP2;ratioP2;P2;SDS_P1;SDS_P2;PMS_P1;PMS_P2;Temp;Humidity;BMP_temperature;BMP_pressure;BME280_temperature;BME280_humidity;BME280_pressure;Samples;Min_cycle;Max_cycle;Signal;HPM_P1;HPM_P2
2023/07/01 00:01:59;;;;;;;22.02;13.13;;;;;;;;;;6151882;23;20172;-92
2023/07/01 00:05:04;;;;;;;25.63;15.05;;;;;;;;;;6152576;23;20169;-91
2023/07/01 00:08:11;;;;;;;25.77;13.80;;;;;;;;;;6152613;23;20168;-91
2023/07/01 00:11:16;;;;;;;23.33;13.93;;;;;;;;;;6153624;23;20196;-90
2023/07/01 00:14:21;;;;;;;25.15;13.80;;;;;;;;;;6153917;23;20540;-91
2023/07/01 00:17:26;;;;;;;27.58;12.82;;;;;;;;;;6155250;23;20235;-90
2023/07/01 00:20:32;;;;;;;24.73;13.70;;;;;;;;;;6153863;23;20196;-91
2023/07/01 00:23:38;;;;;;;24.88;13.57;;;;;;;;;;6153677;23;20192;-91
2023/07/01 00:26:43;;;;;;;24.42;14.88;;;;;;;;;;6153577;23;20184;-91
2023/07/01 00:29:48;;;;;;;21.33;13.85;;;;;;;;;;6153350;23;20180;-91
2023/07/01 00:32:53;;;;;;;22.73;14.90;;;;;;;;;;6153570;23;20172;-91
2023/07/01 00:35:59;;;;;;;21.67;13.13;;;;;;;;;;6153350;23;20217;-89
2023/07/01 00:39:06;;;;;;;25.52;15.45;;;;;;;;;;6155588;23;20173;-91
2023/07/01 00:42:11;;;;;;;24.90;14.98;;;;;;;;;;6155112;23;20220;-92
2023/07/01 00:45:20;;;;;;;30.10;15.93;;;;;;;;;;6153520;23;20488;-90
2023/07/01 00:48:27;;;;;;;21.17;13.65;;;;;;;;;;6154400;23;20168;-92
2023/07/01 00:51:40;;;;;;;27.73;14.05;;;;;;;;;;6155613;23;20567;-90
2023/07/01 00:54:47;;;;;;;33.13;15.00;;;;;;;;;;6155624;23;20164;-91
2023/07/01 00:57:52;;;;;;;27.42;14.85;;;;;;;;;;6155650;23;20168;-90
2023/07/01 01:00:58;;;;;;;24.10;13.70;;;;;;;;;;6155087;23;20169;-90
2023/07/01 01:04:09;;;;;;;24.15;14.35;;;;;;;;;;6155279;23;20201;-91
2023/07/01 01:07:16;;;;;;;25.02;13.98;;;;;;;;;;6153797;23;20208;-92
2023/07/01 01:10:24;;;;;;;23.02;14.30;;;;;;;;;;6155549;23;20217;-90
2023/07/01 01:13:30;;;;;;;27.38;15.15;;;;;;;;;;6154638;23;20164;-90
2023/07/01 01:16:36;;;;;;;28.15;14.90;;;;;;;;;;6154165;23;20152;-92
2023/07/01 01:19:42;;;;;;;28.17;14.63;;;;;;;;;;6153457;23;20188;-92
2023/07/01 01:22:50;;;;;;;29.77;15.85;;;;;;;;;;6152287;23;20177;-91
2023/07/01 01:26:06;;;;;;;28.13;15.40;;;;;;;;;;6154571;23;20172;-90
2023/07/01 01:29:13;;;;;;;24.40;13.73;;;;;;;;;;6153998;23;20165;-91
2023/07/01 01:32:19;;;;;;;23.95;14.13;;;;;;;;;;6153064;23;20203;-90
2023/07/01 01:35:25;;;;;;;26.25;14.23;;;;;;;;;;6154012;23;20511;-91
2023/07/01 01:38:32;;;;;;;26.65;14.23;;;;;;;;;;6152368;23;20238;-91
2023/07/01 01:41:41;;;;;;;25.20;14.63;;;;;;;;;;6154461;23;20157;-90
2023/07/01 01:44:52;;;;;;;30.75;15.40;;;;;;;;;;6154123;23;20177;-92
2023/07/01 01:47:57;;;;;;;37.28;19.40;;;;;;;;;;6153088;23;20168;-90
2023/07/01 01:51:03;;;;;;;38.28;19.98;;;;;;;;;;6152806;23;20223;-91
2023/07/01 01:54:10;;;;;;;43.17;19.40;;;;;;;;;;6150746;23;20368;-92
2023/07/01 01:57:16;;;;;;;38.47;20.35;;;;;;;;;;6151517;23;20197;-90
2023/07/01 02:00:24;;;;;;;31.38;17.17;;;;;;;;;;6153141;23;20173;-91
2023/07/01 02:03:29;;;;;;;26.30;15.43;;;;;;;;;;6151509;23;20559;-90
2023/07/01 02:06:35;;;;;;;24.45;14.77;;;;;;;;;;6151927;23;20168;-90
2023/07/01 02:09:40;;;;;;;28.58;15.00;;;;;;;;;;6150379;23;20164;-92
2023/07/01 02:12:45;;;;;;;29.55;15.75;;;;;;;;;;6151573;23;20161;-91
2023/07/01 02:15:53;;;;;;;26.17;15.80;;;;;;;;;;6153773;23;20622;-92
2023/07/01 02:18:58;;;;;;;25.38;14.48;;;;;;;;;;6152288;23;20267;-91
2023/07/01 02:22:03;;;;;;;25.77;14.63;;;;;;;;;;6169414;23;20192;-91
2023/07/01 02:25:09;;;;;;;25.20;13.82;;;;;;;;;;6169526;23;20164;-91
2023/07/01 02:28:14;;;;;;;26.27;13.93;;;;;;;;;;6168933;23;20151;-90
2023/07/01 02:31:21;;;;;;;24.08;13.48;;;;;;;;;;6166939;23;20196;-91
2023/07/01 02:34:26;;;;;;;26.90;14.63;;;;;;;;;;6168129;23;20172;-91
2023/07/01 02:37:31;;;;;;;27.75;15.73;;;;;;;;;;6167783;23;20244;-91
2023/07/01 02:40:37;;;;;;;28.88;15.23;;;;;;;;;;6168431;23;20172;-89
2023/07/01 02:43:42;;;;;;;25.58;14.52;;;;;;;;;;6167207;23;20173;-91
2023/07/01 02:46:48;;;;;;;28.00;14.57;;;;;;;;;;6168397;23;20165;-90
2023/07/01 02:49:53;;;;;;;26.42;15.10;;;;;;;;;;6167903;23;20165;-89
2023/07/01 02:52:58;;;;;;;31.85;15.88;;;;;;;;;;6169681;23;20248;-90
2023/07/01 02:56:03;;;;;;;31.27;15.98;;;;;;;;;;6169048;23;20164;-91
2023/07/01 02:59:10;;;;;;;35.92;17.83;;;;;;;;;;6167459;23;20183;-91
2023/07/01 03:02:16;;;;;;;35.65;18.45;;;;;;;;;;6168854;23;20161;-90
2023/07/01 03:05:23;;;;;;;39.15;19.27;;;;;;;;;;6169189;23;20153;-91
2023/07/01 03:08:28;;;;;;;37.72;19.55;;;;;;;;;;6169676;23;20240;-92
2023/07/01 03:11:33;;;;;;;38.08;19.17;;;;;;;;;;6171796;23;20232;-90
2023/07/01 03:14:38;;;;;;;37.42;19.27;;;;;;;;;;6169023;23;20220;-91
2023/07/01 03:17:48;;;;;;;39.55;19.23;;;;;;;;;;6173453;23;20145;-90
2023/07/01 03:20:57;;;;;;;38.58;20.88;;;;;;;;;;6171105;23;20523;-90
2023/07/01 03:24:02;;;;;;;37.67;20.55;;;;;;;;;;6169727;23;20164;-91
2023/07/01 03:27:07;;;;;;;41.28;20.60;;;;;;;;;;6168571;23;20617;-91
2023/07/01 03:30:14;;;;;;;43.67;20.90;;;;;;;;;;6168869;23;20149;-91
2023/07/01 03:33:22;;;;;;;42.28;21.33;;;;;;;;;;6169510;23;20161;-90
2023/07/01 03:36:27;;;;;;;41.08;20.95;;;;;;;;;;6168374;23;20172;-91
2023/07/01 03:39:32;;;;;;;44.08;21.33;;;;;;;;;;6169066;23;20619;-90
2023/07/01 03:42:38;;;;;;;42.38;21.27;;;;;;;;;;6168118;23;20238;-91
2023/07/01 03:45:43;;;;;;;41.58;21.73;;;;;;;;;;6168776;23;20152;-89
2023/07/01 03:48:50;;;;;;;39.15;20.98;;;;;;;;;;6169407;23;20208;-89
2023/07/01 03:51:55;;;;;;;40.47;21.05;;;;;;;;;;6169252;23;20240;-90
2023/07/01 03:55:04;;;;;;;43.00;21.73;;;;;;;;;;6169476;23;20221;-90
2023/07/01 03:58:37;;;;;;;39.25;20.83;;;;;;;;;;6168046;23;20168;-90
2023/07/01 04:05:23;;;;;;;39.10;19.90;;;;;;;;;;6169280;23;20164;-91
2023/07/01 04:08:29;;;;;;;37.72;20.75;;;;;;;;;;6167370;23;20164;-90
2023/07/01 04:11:33;;;;;;;38.25;20.83;;;;;;;;;;6169470;23;20208;-91
2023/07/01 04:14:38;;;;;;;41.85;21.30;;;;;;;;;;6167256;23;20184;-91
2023/07/01 04:18:28;;;;;;;38.38;20.25;;;;;;;;;;6168373;23;20152;-90
2023/07/01 04:21:35;;;;;;;40.97;20.25;;;;;;;;;;6171411;23;20164;-90
2023/07/01 04:24:40;;;;;;;42.53;21.27;;;;;;;;;;6169818;23;20172;-90
2023/07/01 04:27:45;;;;;;;42.38;21.73;;;;;;;;;;6169726;23;20160;-91
2023/07/01 04:30:51;;;;;;;38.38;20.58;;;;;;;;;;6170764;23;20172;-91
2023/07/01 04:33:57;;;;;;;36.50;19.73;;;;;;;;;;6171111;23;20173;-92
2023/07/01 04:37:03;;;;;;;37.30;20.15;;;;;;;;;;6171216;23;20196;-91
2023/07/01 04:40:09;;;;;;;37.80;18.92;;;;;;;;;;6172277;23;20612;-90
2023/07/01 04:43:14;;;;;;;34.75;18.27;;;;;;;;;;6169134;23;20667;-90
2023/07/01 04:46:19;;;;;;;40.60;19.35;;;;;;;;;;6168970;23;20181;-91
2023/07/01 04:49:24;;;;;;;37.88;19.70;;;;;;;;;;6168175;23;20168;-92
2023/07/01 04:52:31;;;;;;;35.42;19.27;;;;;;;;;;6171050;23;20235;-91
2023/07/01 04:55:37;;;;;;;42.92;21.15;;;;;;;;;;6169788;23;20616;-90
2023/07/01 04:59:18;;;;;;;35.22;18.70;;;;;;;;;;6166975;23;20169;-92
2023/07/01 05:02:23;;;;;;;32.83;18.00;;;;;;;;;;6169093;23;20269;-90
2023/07/01 05:05:28;;;;;;;33.50;18.23;;;;;;;;;;6170979;23;20161;-90
2023/07/01 05:08:35;;;;;;;36.33;18.58;;;;;;;;;;6171358;23;20491;-90
2023/07/01 05:11:40;;;;;;;32.92;17.10;;;;;;;;;;6169664;23;20247;-91
2023/07/01 05:14:46;;;;;;;32.78;18.13;;;;;;;;;;6171127;23;20148;-93
2023/07/01 05:17:51;;;;;;;30.70;17.58;;;;;;;;;;6169571;23;20596;-93
2023/07/01 05:20:56;;;;;;;34.25;18.38;;;;;;;;;;6169907;23;20188;-93
2023/07/01 05:24:04;;;;;;;28.17;16.52;;;;;;;;;;6171425;23;20607;-92
2023/07/01 05:27:08;;;;;;;33.15;17.65;;;;;;;;;;6170262;23;20168;-91
2023/07/01 05:30:14;;;;;;;36.60;17.67;;;;;;;;;;6171160;23;20168;-91
2023/07/01 05:33:20;;;;;;;31.60;16.27;;;;;;;;;;6171921;23;20200;-92
2023/07/01 05:36:25;;;;;;;33.67;16.05;;;;;;;;;;6171729;23;20171;-93
2023/07/01 05:39:32;;;;;;;30.13;16.77;;;;;;;;;;6170152;23;20189;-91
2023/07/01 05:42:37;;;;;;;30.58;16.88;;;;;;;;;;6170184;23;20628;-93
2023/07/01 05:45:43;;;;;;;26.90;14.63;;;;;;;;;;6169577;23;20168;-92
2023/07/01 05:48:48;;;;;;;31.33;16.17;;;;;;;;;;6173162;23;20216;-89
2023/07/01 05:51:53;;;;;;;33.08;15.80;;;;;;;;;;6170762;23;20252;-92
2023/07/01 05:55:00;;;;;;;29.23;15.30;;;;;;;;;;6171983;23;20164;-91
2023/07/01 05:58:08;;;;;;;28.83;15.20;;;;;;;;;;6170830;23;20212;-92
2023/07/01 06:01:13;;;;;;;29.08;15.18;;;;;;;;;;6167954;23;20161;-90
2023/07/01 06:04:18;;;;;;;28.60;15.00;;;;;;;;;;6172039;23;20200;-91
2023/07/01 06:07:24;;;;;;;27.27;14.43;;;;;;;;;;6170572;23;20228;-91
2023/07/01 06:10:30;;;;;;;25.55;13.40;;;;;;;;;;6169227;23;20168;-91
2023/07/01 06:13:39;;;;;;;28.35;13.82;;;;;;;;;;6176706;23;20220;-92
2023/07/01 06:16:44;;;;;;;24.02;13.25;;;;;;;;;;6170311;23;20165;-91
2023/07/01 06:19:49;;;;;;;24.58;12.57;;;;;;;;;;6167669;23;20179;-91
2023/07/01 06:22:54;;;;;;;21.05;11.52;;;;;;;;;;6172244;23;20220;-91
2023/07/01 06:26:01;;;;;;;21.55;11.82;;;;;;;;;;6175389;23;20168;-90
2023/07/01 06:29:06;;;;;;;21.23;11.25;;;;;;;;;;6172147;23;20168;-90
2023/07/01 06:32:11;;;;;;;26.10;11.38;;;;;;;;;;6169556;23;20191;-90
2023/07/01 06:35:16;;;;;;;18.15;9.30;;;;;;;;;;6168776;23;20147;-88
2023/07/01 06:38:21;;;;;;;19.10;7.75;;;;;;;;;;6170475;23;20241;-89
2023/07/01 06:41:31;;;;;;;14.07;7.90;;;;;;;;;;6168097;23;20201;-90
2023/07/01 06:44:37;;;;;;;13.52;6.00;;;;;;;;;;6167087;23;20188;-90
2023/07/01 06:47:43;;;;;;;11.95;6.50;;;;;;;;;;6169482;23;20600;-92
2023/07/01 06:50:49;;;;;;;15.32;7.40;;;;;;;;;;6167176;23;20157;-91
2023/07/01 06:53:53;;;;;;;12.18;7.07;;;;;;;;;;6170166;23;20180;-90
2023/07/01 06:57:01;;;;;;;12.93;7.75;;;;;;;;;;6167539;23;20221;-91
2023/07/01 07:00:09;;;;;;;14.98;7.82;;;;;;;;;;6172120;23;20179;-89
2023/07/01 07:03:14;;;;;;;13.30;7.10;;;;;;;;;;6173535;23;20172;-87
2023/07/01 07:06:19;;;;;;;12.85;6.30;;;;;;;;;;6171167;23;20153;-90
2023/07/01 07:09:24;;;;;;;13.15;7.53;;;;;;;;;;6174026;23;20188;-89
2023/07/01 07:12:31;;;;;;;14.30;6.93;;;;;;;;;;6172036;23;20195;-90
2023/07/01 07:15:38;;;;;;;12.35;6.57;;;;;;;;;;6170981;23;20168;-91
2023/07/01 07:18:43;;;;;;;10.40;4.97;;;;;;;;;;6169932;23;20173;-89
2023/07/01 07:21:48;;;;;;;9.45;5.47;;;;;;;;;;6171094;23;20208;-90
2023/07/01 07:24:54;;;;;;;12.95;6.15;;;;;;;;;;6169626;23;20169;-89
2023/07/01 07:28:02;;;;;;;7.65;4.25;;;;;;;;;;6151473;23;20187;-89
2023/07/01 07:31:07;;;;;;;10.50;4.55;;;;;;;;;;6168820;23;20172;-90
2023/07/01 07:34:12;;;;;;;12.93;5.10;;;;;;;;;;6168564;23;20196;-89
2023/07/01 07:37:17;;;;;;;9.63;4.70;;;;;;;;;;6171659;23;20163;-90
2023/07/01 07:40:23;;;;;;;8.73;5.38;;;;;;;;;;6169743;23;20168;-89
2023/07/01 07:43:30;;;;;;;11.27;5.05;;;;;;;;;;6169178;23;20153;-90
2023/07/01 07:46:36;;;;;;;11.35;4.80;;;;;;;;;;6169428;23;20490;-89
2023/07/01 07:49:41;;;;;;;12.40;4.55;;;;;;;;;;6168805;23;20243;-89
2023/07/01 07:52:46;;;;;;;10.63;5.57;;;;;;;;;;6170510;23;20196;-90
2023/07/01 07:55:51;;;;;;;15.30;7.35;;;;;;;;;;6169541;23;20165;-89
2023/07/01 07:58:58;;;;;;;14.75;8.15;;;;;;;;;;6168978;23;20184;-89
2023/07/01 08:02:03;;;;;;;18.80;7.57;;;;;;;;;;6166799;23;20176;-89
2023/07/01 08:05:08;;;;;;;13.77;7.18;;;;;;;;;;6167510;23;20241;-88
2023/07/01 08:08:14;;;;;;;14.27;6.78;;;;;;;;;;6168943;23;20153;-89
2023/07/01 08:11:19;;;;;;;16.75;7.95;;;;;;;;;;6170772;23;20487;-88
2023/07/01 08:14:25;;;;;;;15.32;8.05;;;;;;;;;;6167945;23;20235;-89
2023/07/01 08:17:40;;;;;;;14.07;7.30;;;;;;;;;;6169413;23;20163;-90
2023/07/01 08:20:50;;;;;;;15.07;7.90;;;;;;;;;;6168686;23;20176;-90
2023/07/01 08:23:56;;;;;;;17.30;8.55;;;;;;;;;;6171537;23;20171;-90
2023/07/01 08:27:02;;;;;;;16.95;7.97;;;;;;;;;;6167912;23;20168;-89
2023/07/01 08:30:11;;;;;;;15.85;7.47;;;;;;;;;;6168241;23;20220;-89
2023/07/01 08:33:20;;;;;;;17.42;7.88;;;;;;;;;;6166287;23;20196;-88
2023/07/01 08:36:25;;;;;;;14.30;7.60;;;;;;;;;;6172005;23;20168;-89
2023/07/01 08:39:30;;;;;;;17.80;7.30;;;;;;;;;;6171431;23;20642;-89
2023/07/01 08:42:43;;;;;;;14.00;7.13;;;;;;;;;;6173615;23;20172;-91
2023/07/01 08:45:51;;;;;;;15.43;7.70;;;;;;;;;;6172124;23;20496;-89
2023/07/01 08:48:57;;;;;;;16.70;6.68;;;;;;;;;;6171922;23;20181;-87
2023/07/01 08:52:05;;;;;;;13.25;6.60;;;;;;;;;;6173277;23;20326;-88
2023/07/01 08:55:11;;;;;;;9.60;6.03;;;;;;;;;;6176024;23;20176;-90
2023/07/01 08:58:17;;;;;;;15.38;6.90;;;;;;;;;;6172025;23;20175;-89
2023/07/01 09:01:25;;;;;;;13.15;6.25;;;;;;;;;;6172434;23;20168;-89
2023/07/01 09:04:30;;;;;;;14.20;5.90;;;;;;;;;;6171578;23;20225;-90
2023/07/01 09:07:36;;;;;;;9.70;4.68;;;;;;;;;;6174845;23;20240;-89
2023/07/01 09:10:42;;;;;;;18.50;4.97;;;;;;;;;;6171440;23;20232;-89
2023/07/01 09:13:47;;;;;;;11.35;4.57;;;;;;;;;;6168591;23;20199;-90
2023/07/01 09:16:53;;;;;;;7.88;3.90;;;;;;;;;;6185571;23;20161;-88
2023/07/01 09:20:03;;;;;;;10.45;3.88;;;;;;;;;;6167556;23;20179;-89
2023/07/01 09:23:08;;;;;;;8.20;4.70;;;;;;;;;;6170285;23;20293;-88
2023/07/01 09:26:15;;;;;;;8.07;4.22;;;;;;;;;;6168145;23;20176;-89
2023/07/01 09:29:24;;;;;;;6.75;3.72;;;;;;;;;;6170814;23;20169;-91
2023/07/01 09:32:34;;;;;;;9.10;3.92;;;;;;;;;;6170064;23;20164;-90
2023/07/01 09:35:43;;;;;;;7.07;3.78;;;;;;;;;;6171189;23;20176;-91
2023/07/01 09:38:52;;;;;;;8.50;3.83;;;;;;;;;;6189818;23;20212;-90
2023/07/01 09:42:04;;;;;;;7.28;3.28;;;;;;;;;;6169656;23;20655;-90
2023/07/01 09:45:10;;;;;;;8.88;3.47;;;;;;;;;;6170737;23;20247;-90
2023/07/01 09:48:18;;;;;;;9.25;3.20;;;;;;;;;;6172331;23;20175;-90
2023/07/01 09:51:26;;;;;;;5.05;3.15;;;;;;;;;;6171691;23;20600;-90
2023/07/01 09:54:32;;;;;;;9.38;3.08;;;;;;;;;;6172070;23;20311;-90
2023/07/01 09:57:41;;;;;;;4.57;2.60;;;;;;;;;;6171283;23;20240;-89
2023/07/01 10:00:46;;;;;;;5.63;2.92;;;;;;;;;;6170906;23;20168;-89
2023/07/01 10:03:55;;;;;;;7.18;3.08;;;;;;;;;;6170779;23;20167;-89
2023/07/01 10:07:03;;;;;;;9.43;2.92;;;;;;;;;;6175390;23;20167;-90
2023/07/01 10:10:12;;;;;;;10.90;3.22;;;;;;;;;;6173023;23;20172;-89
2023/07/01 10:13:18;;;;;;;7.40;2.30;;;;;;;;;;6171227;23;20191;-89
2023/07/01 10:16:23;;;;;;;6.10;2.40;;;;;;;;;;6172330;23;20361;-89
2023/07/01 10:19:31;;;;;;;8.68;2.00;;;;;;;;;;6174671;23;20191;-91
2023/07/01 10:22:37;;;;;;;5.40;2.03;;;;;;;;;;6168790;23;20281;-88
2023/07/01 10:25:43;;;;;;;5.10;2.35;;;;;;;;;;6171915;23;20688;-88
2023/07/01 10:28:48;;;;;;;5.22;2.05;;;;;;;;;;6168802;23;20268;-90
2023/07/01 10:32:09;;;;;;;9.50;2.30;;;;;;;;;;6171748;23;20197;-89
2023/07/01 10:35:16;;;;;;;4.03;1.85;;;;;;;;;;6172455;23;20177;-89
2023/07/01 10:38:22;;;;;;;7.95;2.38;;;;;;;;;;6171411;23;20169;-89
2023/07/01 10:41:46;;;;;;;5.72;2.20;;;;;;;;;;6173343;23;20631;-89
2023/07/01 10:44:51;;;;;;;8.20;2.90;;;;;;;;;;6170841;23;20177;-88
2023/07/01 10:48:11;;;;;;;7.18;2.60;;;;;;;;;;6169274;23;20172;-90
2023/07/01 10:51:18;;;;;;;6.55;2.28;;;;;;;;;;6185631;23;20233;-89
2023/07/01 10:54:31;;;;;;;6.20;2.47;;;;;;;;;;6169379;23;20216;-89
2023/07/01 10:57:36;;;;;;;7.97;2.55;;;;;;;;;;6169461;23;20164;-89
2023/07/01 11:00:41;;;;;;;6.00;3.85;;;;;;;;;;6172192;23;20169;-89
2023/07/01 11:03:57;;;;;;;7.55;2.92;;;;;;;;;;6188834;23;20245;-88
2023/07/01 11:07:04;;;;;;;8.50;2.45;;;;;;;;;;6170128;23;20172;-88
2023/07/01 11:10:09;;;;;;;6.10;2.80;;;;;;;;;;6187686;23;20177;-89
2023/07/01 11:13:18;;;;;;;5.25;2.60;;;;;;;;;;6170997;23;20224;-89
2023/07/01 11:16:25;;;;;;;8.15;2.95;;;;;;;;;;6171445;23;20176;-87
2023/07/01 11:19:31;;;;;;;5.28;2.85;;;;;;;;;;6191440;23;20192;-90
2023/07/01 11:22:42;;;;;;;5.93;2.90;;;;;;;;;;6172959;23;20163;-88
2023/07/01 11:25:48;;;;;;;8.05;3.13;;;;;;;;;;6173835;23;20180;-89
2023/07/01 11:28:54;;;;;;;9.82;4.10;;;;;;;;;;6173473;23;20206;-90
2023/07/01 11:32:00;;;;;;;5.88;2.92;;;;;;;;;;6174220;23;20172;-89
2023/07/01 11:35:12;;;;;;;3.95;2.35;;;;;;;;;;6177354;23;20224;-92
2023/07/01 11:38:40;;;;;;;6.57;2.63;;;;;;;;;;6173434;23;20193;-89
2023/07/01 11:41:58;;;;;;;4.32;2.65;;;;;;;;;;6176901;23;20181;-92
2023/07/01 11:48:43;;;;;;;8.55;3.03;;;;;;;;;;6173071;23;20185;-89
2023/07/01 11:55:23;;;;;;;6.45;2.92;;;;;;;;;;6173022;23;20292;-90
2023/07/01 11:58:52;;;;;;;5.72;2.60;;;;;;;;;;6170650;23;20224;-91
2023/07/01 12:01:58;;;;;;;6.68;2.92;;;;;;;;;;6176154;23;20172;-89
2023/07/01 12:08:23;;;;;;;8.77;3.30;;;;;;;;;;6174255;23;20212;-89
2023/07/01 12:11:38;;;;;;;5.68;3.47;;;;;;;;;;6177103;23;20167;-89
2023/07/01 12:14:46;;;;;;;5.93;3.55;;;;;;;;;;6173405;23;20205;-88
2023/07/01 12:17:53;;;;;;;7.63;3.30;;;;;;;;;;6175443;23;20188;-89
2023/07/01 12:21:07;;;;;;;7.03;4.10;;;;;;;;;;6176847;23;20298;-88
2023/07/01 12:24:19;;;;;;;5.63;3.30;;;;;;;;;;6174836;23;20196;-88
2023/07/01 12:27:25;;;;;;;7.20;3.67;;;;;;;;;;6172264;23;20172;-89
2023/07/01 12:30:31;;;;;;;7.57;3.78;;;;;;;;;;6176484;23;20223;-87
2023/07/01 12:33:37;;;;;;;8.10;3.63;;;;;;;;;;6189392;23;20271;-89
2023/07/01 12:36:44;;;;;;;11.77;4.40;;;;;;;;;;6170412;23;20164;-89
2023/07/01 12:39:52;;;;;;;10.15;3.30;;;;;;;;;;6168579;23;20160;-88
2023/07/01 12:42:58;;;;;;;6.47;3.28;;;;;;;;;;6169767;23;20179;-89
2023/07/01 12:46:05;;;;;;;5.22;2.90;;;;;;;;;;6173646;23;20171;-90
2023/07/01 12:49:10;;;;;;;6.75;3.38;;;;;;;;;;6170765;23;20172;-88
2023/07/01 12:52:15;;;;;;;4.90;2.70;;;;;;;;;;6170531;23;20171;-88
2023/07/01 12:55:21;;;;;;;8.10;3.00;;;;;;;;;;6172143;23;20195;-89
2023/07/01 12:58:27;;;;;;;5.53;3.00;;;;;;;;;;6169968;23;20172;-89
2023/07/01 13:01:34;;;;;;;7.05;2.90;;;;;;;;;;6172259;23;20163;-89
2023/07/01 13:04:39;;;;;;;8.75;3.20;;;;;;;;;;6171879;23;20502;-90
2023/07/01 13:07:44;;;;;;;5.43;3.00;;;;;;;;;;6170136;23;20168;-88
2023/07/01 13:10:49;;;;;;;8.13;3.20;;;;;;;;;;6171865;23;20193;-89
2023/07/01 13:13:58;;;;;;;7.40;2.72;;;;;;;;;;6173692;23;20215;-90
2023/07/01 13:17:06;;;;;;;5.70;2.95;;;;;;;;;;6170297;23;20204;-89
2023/07/01 13:20:11;;;;;;;7.05;3.30;;;;;;;;;;6171445;23;20176;-90
2023/07/01 13:23:17;;;;;;;7.18;2.72;;;;;;;;;;6172813;23;20627;-89
2023/07/01 13:26:23;;;;;;;6.68;3.13;;;;;;;;;;6169912;23;20251;-89
2023/07/01 13:29:30;;;;;;;4.75;2.70;;;;;;;;;;6169479;23;20165;-89
2023/07/01 13:32:36;;;;;;;4.15;2.60;;;;;;;;;;6170764;23;20168;-89
2023/07/01 13:35:41;;;;;;;5.65;3.03;;;;;;;;;;6171841;23;20200;-89
2023/07/01 13:38:49;;;;;;;8.00;3.13;;;;;;;;;;6172236;23;20196;-90
2023/07/01 13:41:54;;;;;;;6.13;2.80;;;;;;;;;;6168987;23;20591;-89
2023/07/01 13:44:59;;;;;;;7.47;3.65;;;;;;;;;;6169995;23;20173;-89
2023/07/01 13:48:07;;;;;;;6.32;3.13;;;;;;;;;;6170812;23;20255;-89
2023/07/01 13:51:13;;;;;;;7.85;3.88;;;;;;;;;;6169201;23;20192;-88
2023/07/01 14:39:44;;;;;;;6.68;3.53;;;;;;;;;;6240945;22;20214;-89
2023/07/01 14:42:49;;;;;;;6.50;3.45;;;;;;;;;;6244560;22;20194;-88
2023/07/01 14:45:55;;;;;;;11.73;3.10;;;;;;;;;;6244900;22;20182;-89
2023/07/01 14:49:03;;;;;;;6.13;3.13;;;;;;;;;;6246451;22;20150;-89
2023/07/01 14:52:09;;;;;;;5.03;3.20;;;;;;;;;;6245352;22;20206;-89
2023/07/01 14:55:16;;;;;;;5.78;3.00;;;;;;;;;;6245160;23;20256;-88
2023/07/01 14:58:26;;;;;;;7.70;2.83;;;;;;;;;;6243931;22;20146;-90
2023/07/01 15:01:33;;;;;;;7.68;3.15;;;;;;;;;;6241495;23;20166;-91
2023/07/01 15:04:38;;;;;;;7.15;3.28;;;;;;;;;;6243995;23;20162;-90
2023/07/01 15:07:43;;;;;;;6.78;3.00;;;;;;;;;;6243628;23;20214;-90
2023/07/01 15:10:50;;;;;;;6.38;2.97;;;;;;;;;;6242432;23;20167;-91
2023/07/01 15:13:56;;;;;;;9.32;3.20;;;;;;;;;;6242186;23;20170;-91
2023/07/01 15:17:30;;;;;;;4.82;2.60;;;;;;;;;;6243088;22;20245;-89
2023/07/01 15:20:37;;;;;;;6.85;2.95;;;;;;;;;;6244077;23;20201;-90
2023/07/01 15:23:43;;;;;;;6.78;3.22;;;;;;;;;;6244819;23;20205;-90
2023/07/01 15:26:49;;;;;;;8.23;2.80;;;;;;;;;;6246765;23;20195;-89
2023/07/01 15:29:54;;;;;;;6.45;3.00;;;;;;;;;;6244995;23;20226;-90
2023/07/01 15:33:00;;;;;;;7.38;3.50;;;;;;;;;;6243852;23;20178;-89
2023/07/01 15:36:06;;;;;;;9.98;3.20;;;;;;;;;;6245208;23;20190;-90
2023/07/01 15:39:12;;;;;;;5.20;2.78;;;;;;;;;;6242441;23;20190;-89
2023/07/01 15:42:19;;;;;;;5.22;2.97;;;;;;;;;;6244220;23;20200;-89
2023/07/01 15:45:24;;;;;;;6.75;2.88;;;;;;;;;;6262161;23;20600;-89
2023/07/01 15:48:30;;;;;;;7.78;3.10;;;;;;;;;;6242271;23;20495;-89
2023/07/01 15:51:37;;;;;;;8.10;2.83;;;;;;;;;;6242312;23;20174;-90
2023/07/01 15:54:43;;;;;;;9.52;2.90;;;;;;;;;;6242762;22;20201;-90
2023/07/01 15:57:54;;;;;;;7.40;3.10;;;;;;;;;;6241466;23;20190;-89
2023/07/01 16:01:00;;;;;;;4.53;2.80;;;;;;;;;;6245501;23;20167;-90
2023/07/01 16:04:06;;;;;;;4.45;2.65;;;;;;;;;;6247016;23;20222;-89
2023/07/01 16:07:31;;;;;;;6.43;2.83;;;;;;;;;;6244886;23;20221;-88
2023/07/01 16:10:36;;;;;;;5.03;2.83;;;;;;;;;;6242062;23;20273;-89
2023/07/01 16:13:43;;;;;;;6.38;3.28;;;;;;;;;;6262138;22;20205;-89
2023/07/01 16:16:49;;;;;;;4.38;2.55;;;;;;;;;;6243143;23;20605;-88
2023/07/01 16:19:54;;;;;;;5.55;3.15;;;;;;;;;;6242784;23;20203;-87
2023/07/01 16:23:02;;;;;;;9.07;3.45;;;;;;;;;;6245154;23;20159;-89
2023/07/01 16:26:08;;;;;;;6.60;2.97;;;;;;;;;;6241627;23;20240;-89
2023/07/01 16:29:15;;;;;;;4.10;2.60;;;;;;;;;;6241495;23;20170;-88
2023/07/01 16:32:22;;;;;;;5.07;2.83;;;;;;;;;;6242437;23;20610;-90
2023/07/01 16:36:00;;;;;;;10.32;3.42;;;;;;;;;;6241565;23;20194;-89
2023/07/01 16:39:09;;;;;;;10.35;4.20;;;;;;;;;;6243836;23;20629;-89
2023/07/01 16:42:15;;;;;;;6.45;3.53;;;;;;;;;;6241827;23;20167;-89
2023/07/01 16:45:37;;;;;;;6.38;3.30;;;;;;;;;;6259670;22;20283;-90
2023/07/01 16:48:44;;;;;;;11.10;6.63;;;;;;;;;;6242339;23;20179;-89
2023/07/01 16:51:51;;;;;;;8.00;4.55;;;;;;;;;;6243177;22;20170;-90
2023/07/01 16:54:57;;;;;;;4.82;3.20;;;;;;;;;;6243934;23;20250;-90
2023/07/01 16:58:02;;;;;;;4.80;3.13;;;;;;;;;;6246230;23;20166;-88
2023/07/01 17:01:12;;;;;;;7.63;3.88;;;;;;;;;;6245064;23;20219;-89
2023/07/01 17:04:20;;;;;;;5.03;2.92;;;;;;;;;;6245131;23;20159;-88
2023/07/01 17:07:26;;;;;;;6.47;2.65;;;;;;;;;;6246297;22;20167;-88
2023/07/01 17:10:37;;;;;;;6.25;2.97;;;;;;;;;;6244947;23;20151;-88
2023/07/01 17:13:42;;;;;;;4.40;2.85;;;;;;;;;;6245855;23;20155;-89
2023/07/01 17:17:16;;;;;;;10.07;3.33;;;;;;;;;;6243427;23;20171;-89
2023/07/01 17:20:23;;;;;;;26.38;11.20;;;;;;;;;;6226014;23;20710;-90
2023/07/01 17:23:30;;;;;;;7.60;3.78;;;;;;;;;;6244318;23;20159;-89
2023/07/01 17:26:46;;;;;;;5.90;2.90;;;;;;;;;;6238990;22;20170;-89
2023/07/01 23:31:03;;;;;;;7.65;3.65;;;;;;;;;;6235348;22;20211;-91
2023/07/01 23:34:08;;;;;;;6.00;3.50;;;;;;;;;;6237631;22;20170;-90
2023/07/01 23:37:13;;;;;;;8.30;3.30;;;;;;;;;;6237486;23;20233;-90
2023/07/01 23:40:18;;;;;;;5.32;3.63;;;;;;;;;;6239792;22;20170;-90
2023/07/01 23:43:23;;;;;;;6.60;3.55;;;;;;;;;;6238542;23;20249;-90
2023/07/01 23:46:29;;;;;;;4.90;2.97;;;;;;;;;;6240074;23;20213;-91
2023/07/01 23:49:34;;;;;;;7.80;2.63;;;;;;;;;;6238318;23;20186;-90
2023/07/01 23:52:39;;;;;;;17.75;10.43;;;;;;;;;;6238249;23;20170;-88
2023/07/01 23:55:45;;;;;;;6.90;3.05;;;;;;;;;;6238669;23;20181;-90
2023/07/01 23:58:50;;;;;;;4.38;2.90;;;;;;;;;;6238477;22;20166;-89
